Airfield :
LOGIN :

Register | Disclaimer

   EN    FR    IT 

 










Legend :    VFR   Marginal VFR   IFR   Intensive IFR   Very Intensive IFR
Visi :
Ceiling :
>= 8 km
>= 3000ft
5 to 8 km
1000 to 3000 ft
1500m to 5 km
500 to 1000 ft
800 to 1500m
200 to 500 ft
< 800m
< 200 ft
Symbols :   Thunderstorms  Fog  Heavy snow  Heavy precipitations  Wind > 20 kt
SIGMETs :     Misc.  Thunderstorms  Icing  Turbulence  Mountain Waves  Volcanic Ashes







- Airport Elevation : 1260 ft
- IATA code : LDE
- Download approach charts


LFBT - Tarbes / Ossun

CURRENT METAR :
  • 180230Z AUTO 28003KT 9999 OVC110/// ///CB 19/19 Q1016 NOSIG

EXPIRED METARs :
  • 180200Z AUTO 15003KT 110V170 9999 FEW056/// OVC100/// ///CB 19/19 Q1016 NOSIG
  • 180130Z AUTO 19004KT 9999 BKN110/// BKN140/// OVC180/// ///TCU 19/19 Q1017 TEMPO FEW080CB SCT100TCU
  • 180100Z AUTO 21004KT 170V250 9999 FEW110/// BKN140/// OVC180/// ///TCU 19/19 Q1016 TEMPO FEW080CB SCT100TCU
  • 180030Z AUTO 16004KT 120V200 9999 -RA FEW058/// BKN072/// BKN110/// ///CB 20/19 Q1016 NOSIG
  • 180000Z AUTO 17004KT 120V220 8000 RA FEW047/// BKN086/// OVC100/// ///TCU 20/19 Q1017 BECMG NSW NSC

TAF AMD TAF LFBT
Valid from the 18 at 00:00 until the 19 at 00:00 UTC


180002Z 1800/1824 26004KT CAVOK
PROB40
TEMPO 1800/1805 -SHRA FEW080CB SCT100TCU
BECMG 1807/1809 30005KT
PROB30
TEMPO 1807/1809 BKN009
BECMG 1810/1812 SCT025
PROB40
TEMPO 1814/1816 -SHRA BKN045TCU FEW050CB
PROB30
TEMPO 1814/1816 -TSRA
BECMG 1817/1819 CAVOK
BECMG 1820/1822 VRB02KT
No reported NOTAMs for that airfield.



MET'MAP, your aeronautical weather chart ! - Copyright ORBIFLY December 2007 - Disclaimer

ORBIFLY MET'MAP TEAM :

Programming & Development : Alexandra Zaïnal
Concept & Development : Baudouin d'Aumeries
Co-Development & Prog : Marc-Olivier Méhu
Technical & hardware support : Manuel Goepfert

Contact : metmap@orbifly.com




SOURCES & CREDITS :

   NOAA